TAP11MG LEMG-LPPT
Flight info
| Callsign | TAP11MG |
|---|---|
| Flight time | 0h 55m |
| Altitude | 37000 |
| Route | SVL DCT PIMUR DCT ONUBA DCT NAPES DCT OSLEP DCT MINTA DCT VATZI |
| Aircraft | A319/M-SDE3FGHIRWY/LB1 |
Departure
| Time | 2026-05-06 16:59 |
|---|---|
| Airport | Málaga-Costa del Sol Airport (LEMG) |
Arrival
| Time | 2026-05-06 17:54 |
|---|---|
| Airport | Lisbon Humberto Delgado Airport (LPPT) |
| Time | Latitude | Longitude | Altitude | Speed | Heading |
|---|---|---|---|---|---|
| 2026-05-06 16:15 | 36.67545 | -4.49317 | 39 ft | 0 kts | 115° |
| 2026-05-06 16:48 | 36.67549 | -4.49328 | 69 ft | 4 kts | 113° |
| 2026-05-06 16:48 | 36.67558 | -4.49359 | 37 ft | 4 kts | 103° |
| 2026-05-06 16:48 | 36.67563 | -4.49392 | 41 ft | 4 kts | 96° |
| 2026-05-06 16:48 | 36.67565 | -4.49426 | 38 ft | 4 kts | 89° |
| 2026-05-06 16:49 | 36.67564 | -4.49459 | 40 ft | 3 kts | 91° |
| 2026-05-06 16:49 | 36.67566 | -4.49485 | 42 ft | 4 kts | 126° |
| 2026-05-06 16:49 | 36.67587 | -4.49504 | 39 ft | 4 kts | 147° |
| 2026-05-06 16:49 | 36.67595 | -4.49511 | 39 ft | 0 kts | 133° |
| 2026-05-06 16:51 | 36.67595 | -4.49510 | 39 ft | 1 kts | 133° |
| 2026-05-06 16:51 | 36.67572 | -4.49482 | 39 ft | 7 kts | 134° |
| 2026-05-06 16:52 | 36.67529 | -4.49463 | 42 ft | 7 kts | 193° |
| 2026-05-06 16:52 | 36.67476 | -4.49472 | 42 ft | 8 kts | 175° |
| 2026-05-06 16:52 | 36.67435 | -4.49514 | 42 ft | 8 kts | 257° |
| 2026-05-06 16:52 | 36.67439 | -4.49540 | 43 ft | 0 kts | 294° |
| 2026-05-06 16:53 | 36.67447 | -4.49553 | 43 ft | 4 kts | 306° |
| 2026-05-06 16:53 | 36.67476 | -4.49596 | 42 ft | 8 kts | 312° |
| 2026-05-06 16:53 | 36.67513 | -4.49646 | 43 ft | 8 kts | 313° |
| 2026-05-06 16:53 | 36.67552 | -4.49699 | 43 ft | 9 kts | 311° |
| 2026-05-06 16:54 | 36.67596 | -4.49762 | 43 ft | 9 kts | 311° |
| 2026-05-06 16:54 | 36.67733 | -4.49955 | 43 ft | 20 kts | 310° |
| 2026-05-06 16:54 | 36.67841 | -4.50105 | 44 ft | 25 kts | 311° |
| 2026-05-06 16:55 | 36.67969 | -4.50285 | 44 ft | 30 kts | 312° |
| 2026-05-06 16:55 | 36.68091 | -4.50455 | 44 ft | 25 kts | 312° |
| 2026-05-06 16:55 | 36.68205 | -4.50617 | 45 ft | 25 kts | 311° |
| 2026-05-06 16:55 | 36.68282 | -4.50724 | 45 ft | 25 kts | 311° |
| 2026-05-06 16:56 | 36.68392 | -4.50878 | 49 ft | 23 kts | 311° |
| 2026-05-06 16:56 | 36.68495 | -4.51021 | 53 ft | 20 kts | 309° |
| 2026-05-06 16:56 | 36.68481 | -4.51166 | 58 ft | 16 kts | 246° |
| 2026-05-06 16:56 | 36.68419 | -4.51211 | 61 ft | 10 kts | 147° |
| 2026-05-06 16:57 | 36.68402 | -4.51188 | 61 ft | 0 kts | 130° |
| 2026-05-06 16:58 | 36.68400 | -4.51184 | 61 ft | 3 kts | 130° |
| 2026-05-06 16:58 | 36.68255 | -4.50980 | 56 ft | 72 kts | 132° |
| 2026-05-06 16:58 | 36.67757 | -4.50284 | 58 ft | 139 kts | 132° |
| 2026-05-06 16:58 | 36.67035 | -4.49286 | 336 ft | 167 kts | 133° |
| 2026-05-06 16:59 | 36.66198 | -4.48152 | 748 ft | 191 kts | 133° |
| 2026-05-06 16:59 | 36.65217 | -4.46837 | 1097 ft | 222 kts | 134° |
| 2026-05-06 16:59 | 36.64098 | -4.45339 | 1638 ft | 247 kts | 134° |
| 2026-05-06 16:59 | 36.62891 | -4.43803 | 2589 ft | 249 kts | 144° |
| 2026-05-06 17:00 | 36.61301 | -4.43025 | 3518 ft | 248 kts | 180° |
| 2026-05-06 17:00 | 36.59613 | -4.43315 | 4544 ft | 244 kts | 198° |
| 2026-05-06 17:00 | 36.58003 | -4.43964 | 5535 ft | 245 kts | 204° |
| 2026-05-06 17:00 | 36.56387 | -4.44697 | 6465 ft | 249 kts | 204° |
| 2026-05-06 17:01 | 36.54778 | -4.45505 | 7386 ft | 248 kts | 214° |
| 2026-05-06 17:01 | 36.53472 | -4.46862 | 8357 ft | 246 kts | 233° |
| 2026-05-06 17:01 | 36.52600 | -4.48666 | 9200 ft | 249 kts | 250° |
| 2026-05-06 17:01 | 36.51927 | -4.50657 | 10147 ft | 251 kts | 249° |
| 2026-05-06 17:02 | 36.51254 | -4.52671 | 11029 ft | 253 kts | 253° |
| 2026-05-06 17:02 | 36.50909 | -4.54823 | 11870 ft | 257 kts | 266° |
| 2026-05-06 17:02 | 36.51010 | -4.57136 | 12248 ft | 281 kts | 278° |
| 2026-05-06 17:02 | 36.51302 | -4.59647 | 12568 ft | 305 kts | 277° |
| 2026-05-06 17:03 | 36.51613 | -4.62360 | 12847 ft | 328 kts | 277° |
| 2026-05-06 17:03 | 36.51939 | -4.65215 | 13453 ft | 338 kts | 277° |
| 2026-05-06 17:03 | 36.52283 | -4.68128 | 14162 ft | 343 kts | 278° |
| 2026-05-06 17:03 | 36.52707 | -4.71066 | 14907 ft | 347 kts | 280° |
| 2026-05-06 17:04 | 36.53187 | -4.74016 | 15630 ft | 350 kts | 281° |
| 2026-05-06 17:04 | 36.53693 | -4.76993 | 16342 ft | 354 kts | 281° |
| 2026-05-06 17:04 | 36.54203 | -4.79998 | 17072 ft | 357 kts | 281° |
| 2026-05-06 17:04 | 36.54707 | -4.83041 | 17824 ft | 361 kts | 280° |
| 2026-05-06 17:05 | 36.55206 | -4.86106 | 18489 ft | 364 kts | 280° |
| 2026-05-06 17:05 | 36.55704 | -4.89210 | 19110 ft | 367 kts | 280° |
| 2026-05-06 17:05 | 36.56237 | -4.92321 | 19757 ft | 370 kts | 284° |
| 2026-05-06 17:05 | 36.56955 | -4.95412 | 20432 ft | 374 kts | 285° |
| 2026-05-06 17:06 | 36.57684 | -4.98529 | 21084 ft | 376 kts | 285° |
| 2026-05-06 17:06 | 36.58421 | -5.01666 | 21702 ft | 379 kts | 285° |
| 2026-05-06 17:06 | 36.59163 | -5.04826 | 22303 ft | 382 kts | 285° |
| 2026-05-06 17:06 | 36.59908 | -5.08009 | 22892 ft | 385 kts | 284° |
| 2026-05-06 17:07 | 36.60656 | -5.11217 | 23471 ft | 388 kts | 284° |
| 2026-05-06 17:07 | 36.61410 | -5.14455 | 23956 ft | 390 kts | 284° |
| 2026-05-06 17:07 | 36.62166 | -5.17705 | 24420 ft | 393 kts | 284° |
| 2026-05-06 17:07 | 36.62926 | -5.20978 | 24884 ft | 394 kts | 284° |
| 2026-05-06 17:08 | 36.63689 | -5.24266 | 25343 ft | 396 kts | 284° |
| 2026-05-06 17:08 | 36.64455 | -5.27575 | 25811 ft | 398 kts | 284° |
| 2026-05-06 17:08 | 36.65223 | -5.30901 | 26272 ft | 401 kts | 283° |
| 2026-05-06 17:08 | 36.65993 | -5.34248 | 26684 ft | 404 kts | 283° |
| 2026-05-06 17:09 | 36.66952 | -5.37550 | 27115 ft | 409 kts | 292° |
| 2026-05-06 17:09 | 36.68456 | -5.40577 | 27556 ft | 416 kts | 304° |
| 2026-05-06 17:09 | 36.70488 | -5.43193 | 27978 ft | 426 kts | 315° |
| 2026-05-06 17:09 | 36.72990 | -5.45235 | 28383 ft | 437 kts | 328° |
| 2026-05-06 17:10 | 36.75731 | -5.46818 | 28787 ft | 441 kts | 330° |
| 2026-05-06 17:10 | 36.78530 | -5.48422 | 29133 ft | 444 kts | 329° |
| 2026-05-06 17:10 | 36.81341 | -5.50038 | 29540 ft | 446 kts | 329° |
| 2026-05-06 17:10 | 36.84162 | -5.51667 | 29902 ft | 448 kts | 329° |
| 2026-05-06 17:11 | 36.86994 | -5.53307 | 30227 ft | 450 kts | 329° |
| 2026-05-06 17:11 | 36.89277 | -5.54633 | 30483 ft | 451 kts | 329° |
| 2026-05-06 17:11 | 36.92125 | -5.56288 | 30889 ft | 450 kts | 329° |
| 2026-05-06 17:11 | 36.94962 | -5.57935 | 31339 ft | 449 kts | 329° |
| 2026-05-06 17:12 | 36.97790 | -5.59574 | 31779 ft | 448 kts | 329° |
| 2026-05-06 17:12 | 37.00619 | -5.61212 | 32221 ft | 447 kts | 329° |
| 2026-05-06 17:12 | 37.03436 | -5.62847 | 32653 ft | 447 kts | 329° |
| 2026-05-06 17:12 | 37.06258 | -5.64486 | 33095 ft | 446 kts | 329° |
| 2026-05-06 17:13 | 37.09064 | -5.66118 | 33528 ft | 445 kts | 329° |
| 2026-05-06 17:13 | 37.11871 | -5.67752 | 33977 ft | 444 kts | 328° |
| 2026-05-06 17:13 | 37.14665 | -5.69383 | 34373 ft | 443 kts | 328° |
| 2026-05-06 17:13 | 37.17460 | -5.71001 | 34761 ft | 443 kts | 330° |
| 2026-05-06 17:14 | 37.20395 | -5.72279 | 35153 ft | 449 kts | 339° |
| 2026-05-06 17:14 | 37.23483 | -5.73013 | 35526 ft | 455 kts | 346° |
| 2026-05-06 17:14 | 37.26623 | -5.73521 | 35804 ft | 455 kts | 346° |
| 2026-05-06 17:15 | 37.32806 | -5.74881 | 35873 ft | 442 kts | 333° |
| 2026-05-06 17:15 | 37.35473 | -5.76646 | 35866 ft | 428 kts | 317° |
| 2026-05-06 17:15 | 37.37628 | -5.79150 | 35865 ft | 417 kts | 304° |
| 2026-05-06 17:15 | 37.39187 | -5.82170 | 35865 ft | 409 kts | 291° |
| 2026-05-06 17:16 | 37.40091 | -5.85521 | 35864 ft | 403 kts | 278° |
| 2026-05-06 17:16 | 37.40314 | -5.89014 | 35867 ft | 400 kts | 266° |
| 2026-05-06 17:16 | 37.39894 | -5.92459 | 35866 ft | 400 kts | 257° |
| 2026-05-06 17:17 | 37.38668 | -5.99300 | 35866 ft | 401 kts | 257° |
| 2026-05-06 17:17 | 37.37432 | -6.06137 | 35866 ft | 402 kts | 257° |
| 2026-05-06 17:18 | 37.36199 | -6.13003 | 35868 ft | 402 kts | 257° |
| 2026-05-06 17:18 | 37.34968 | -6.19866 | 35871 ft | 403 kts | 257° |
| 2026-05-06 17:19 | 37.33728 | -6.26732 | 35875 ft | 403 kts | 257° |
| 2026-05-06 17:19 | 37.32478 | -6.33602 | 35885 ft | 404 kts | 257° |
| 2026-05-06 17:20 | 37.31218 | -6.40476 | 35886 ft | 404 kts | 257° |
| 2026-05-06 17:20 | 37.29952 | -6.47370 | 35885 ft | 405 kts | 257° |
| 2026-05-06 17:21 | 37.28693 | -6.54256 | 35885 ft | 405 kts | 257° |
| 2026-05-06 17:21 | 37.27424 | -6.61146 | 35887 ft | 405 kts | 257° |
| 2026-05-06 17:22 | 37.26146 | -6.68055 | 35891 ft | 406 kts | 257° |
| 2026-05-06 17:22 | 37.24860 | -6.74950 | 35888 ft | 406 kts | 257° |
| 2026-05-06 17:23 | 37.23575 | -6.81856 | 35889 ft | 406 kts | 257° |
| 2026-05-06 17:23 | 37.22289 | -6.88754 | 35891 ft | 407 kts | 257° |
| 2026-05-06 17:24 | 37.20997 | -6.95665 | 35889 ft | 407 kts | 257° |
| 2026-05-06 17:24 | 37.19696 | -7.02571 | 35890 ft | 407 kts | 257° |
| 2026-05-06 17:25 | 37.18389 | -7.09489 | 35890 ft | 407 kts | 257° |
| 2026-05-06 17:25 | 37.17069 | -7.16395 | 35891 ft | 408 kts | 257° |
| 2026-05-06 17:26 | 37.15757 | -7.23307 | 35890 ft | 408 kts | 257° |
| 2026-05-06 17:26 | 37.14443 | -7.30228 | 35889 ft | 408 kts | 257° |
| 2026-05-06 17:27 | 37.13639 | -7.37256 | 35888 ft | 409 kts | 271° |
| 2026-05-06 17:27 | 37.14789 | -7.44201 | 35886 ft | 415 kts | 289° |
| 2026-05-06 17:28 | 37.16971 | -7.50901 | 35885 ft | 415 kts | 289° |
| 2026-05-06 17:28 | 37.19142 | -7.57615 | 35884 ft | 416 kts | 289° |
| 2026-05-06 17:29 | 37.21308 | -7.64336 | 35886 ft | 416 kts | 289° |
| 2026-05-06 17:29 | 37.23475 | -7.71061 | 35886 ft | 416 kts | 289° |
| 2026-05-06 17:30 | 37.25636 | -7.77794 | 35888 ft | 416 kts | 289° |
| 2026-05-06 17:30 | 37.27796 | -7.84536 | 35888 ft | 416 kts | 289° |
| 2026-05-06 17:31 | 37.29947 | -7.91278 | 35887 ft | 416 kts | 289° |
| 2026-05-06 17:31 | 37.32101 | -7.98035 | 35895 ft | 417 kts | 289° |
| 2026-05-06 17:32 | 37.34261 | -8.04786 | 35901 ft | 417 kts | 289° |
| 2026-05-06 17:32 | 37.36406 | -8.11555 | 35912 ft | 417 kts | 289° |
| 2026-05-06 17:33 | 37.38538 | -8.18308 | 35904 ft | 417 kts | 289° |
| 2026-05-06 17:33 | 37.40680 | -8.25093 | 35918 ft | 418 kts | 289° |
| 2026-05-06 17:34 | 37.42820 | -8.31886 | 35919 ft | 417 kts | 289° |
| 2026-05-06 17:34 | 37.43902 | -8.35326 | 35707 ft | 418 kts | 288° |
| 2026-05-06 17:34 | 37.44969 | -8.38719 | 35379 ft | 417 kts | 288° |
| 2026-05-06 17:34 | 37.46040 | -8.42130 | 34514 ft | 421 kts | 288° |
| 2026-05-06 17:35 | 37.47118 | -8.45574 | 33637 ft | 424 kts | 288° |
| 2026-05-06 17:35 | 37.48202 | -8.49043 | 32696 ft | 426 kts | 288° |
| 2026-05-06 17:35 | 37.49286 | -8.52520 | 31706 ft | 429 kts | 288° |
| 2026-05-06 17:36 | 37.51482 | -8.59575 | 29521 ft | 436 kts | 288° |
| 2026-05-06 17:36 | 37.52597 | -8.63150 | 28273 ft | 439 kts | 289° |
| 2026-05-06 17:36 | 37.53711 | -8.66720 | 27521 ft | 434 kts | 289° |
| 2026-05-06 17:36 | 37.54806 | -8.70224 | 26870 ft | 425 kts | 289° |
| 2026-05-06 17:37 | 37.55879 | -8.73663 | 26150 ft | 419 kts | 289° |
| 2026-05-06 17:37 | 37.56923 | -8.77026 | 25443 ft | 415 kts | 289° |
| 2026-05-06 17:37 | 37.58009 | -8.80404 | 25081 ft | 404 kts | 293° |
| 2026-05-06 17:37 | 37.59464 | -8.83364 | 24854 ft | 394 kts | 305° |
| 2026-05-06 17:38 | 37.61377 | -8.85818 | 24618 ft | 392 kts | 317° |
| 2026-05-06 17:38 | 37.63628 | -8.87697 | 24107 ft | 396 kts | 329° |
| 2026-05-06 17:38 | 37.66255 | -8.88966 | 23474 ft | 401 kts | 339° |
| 2026-05-06 17:38 | 37.68004 | -8.89658 | 23164 ft | 397 kts | 339° |
| 2026-05-06 17:39 | 37.71474 | -8.91042 | 22430 ft | 393 kts | 339° |
| 2026-05-06 17:39 | 37.74067 | -8.92089 | 21906 ft | 390 kts | 339° |
| 2026-05-06 17:39 | 37.76644 | -8.93139 | 21389 ft | 388 kts | 338° |
| 2026-05-06 17:39 | 37.79167 | -8.94172 | 20889 ft | 385 kts | 338° |
| 2026-05-06 17:40 | 37.81738 | -8.95228 | 20377 ft | 382 kts | 338° |
| 2026-05-06 17:40 | 37.84255 | -8.96261 | 19877 ft | 379 kts | 339° |
| 2026-05-06 17:40 | 37.85947 | -8.96953 | 19536 ft | 378 kts | 339° |
| 2026-05-06 17:40 | 37.88439 | -8.97971 | 19035 ft | 375 kts | 339° |
| 2026-05-06 17:41 | 37.90882 | -8.98971 | 18495 ft | 372 kts | 339° |
| 2026-05-06 17:41 | 37.93335 | -8.99978 | 17991 ft | 368 kts | 339° |
| 2026-05-06 17:41 | 37.95718 | -9.00952 | 17846 ft | 352 kts | 339° |
| 2026-05-06 17:41 | 37.98004 | -9.01881 | 17710 ft | 339 kts | 339° |
| 2026-05-06 17:42 | 38.00217 | -9.02783 | 17436 ft | 332 kts | 339° |
| 2026-05-06 17:42 | 38.02400 | -9.03685 | 17062 ft | 328 kts | 338° |
| 2026-05-06 17:42 | 38.04559 | -9.04594 | 16683 ft | 326 kts | 338° |
| 2026-05-06 17:42 | 38.06699 | -9.05504 | 16305 ft | 323 kts | 338° |
| 2026-05-06 17:43 | 38.08822 | -9.06410 | 15949 ft | 320 kts | 338° |
| 2026-05-06 17:43 | 38.10908 | -9.07296 | 15597 ft | 314 kts | 338° |
| 2026-05-06 17:43 | 38.12969 | -9.08173 | 15140 ft | 311 kts | 338° |
| 2026-05-06 17:43 | 38.15010 | -9.09042 | 14694 ft | 308 kts | 338° |
| 2026-05-06 17:44 | 38.17034 | -9.09903 | 14250 ft | 306 kts | 338° |
| 2026-05-06 17:44 | 38.19084 | -9.10594 | 13822 ft | 305 kts | 348° |
| 2026-05-06 17:44 | 38.21203 | -9.10484 | 13347 ft | 308 kts | 11° |
| 2026-05-06 17:44 | 38.23264 | -9.09762 | 12697 ft | 308 kts | 7° |
| 2026-05-06 17:45 | 38.25362 | -9.09983 | 12150 ft | 300 kts | 341° |
| 2026-05-06 17:45 | 38.27349 | -9.10679 | 11752 ft | 294 kts | 342° |
| 2026-05-06 17:45 | 38.29298 | -9.11414 | 11291 ft | 290 kts | 341° |
| 2026-05-06 17:45 | 38.31257 | -9.12216 | 10415 ft | 301 kts | 340° |
| 2026-05-06 17:46 | 38.33237 | -9.13049 | 10024 ft | 294 kts | 341° |
| 2026-05-06 17:46 | 38.35166 | -9.13860 | 9499 ft | 291 kts | 341° |
| 2026-05-06 17:46 | 38.37086 | -9.14658 | 8907 ft | 289 kts | 341° |
| 2026-05-06 17:46 | 38.38993 | -9.15445 | 8347 ft | 287 kts | 341° |
| 2026-05-06 17:47 | 38.40884 | -9.16222 | 7800 ft | 284 kts | 341° |
| 2026-05-06 17:47 | 38.42593 | -9.16919 | 7291 ft | 283 kts | 342° |
| 2026-05-06 17:47 | 38.44455 | -9.17672 | 6881 ft | 276 kts | 342° |
| 2026-05-06 17:47 | 38.46227 | -9.18390 | 6751 ft | 258 kts | 342° |
| 2026-05-06 17:48 | 38.47905 | -9.19071 | 6495 ft | 250 kts | 342° |
| 2026-05-06 17:48 | 38.49546 | -9.19738 | 6073 ft | 246 kts | 342° |
| 2026-05-06 17:48 | 38.51150 | -9.20392 | 5788 ft | 237 kts | 342° |
| 2026-05-06 17:48 | 38.52697 | -9.21023 | 5434 ft | 231 kts | 342° |
| 2026-05-06 17:49 | 38.54217 | -9.21645 | 5095 ft | 229 kts | 341° |
| 2026-05-06 17:49 | 38.55724 | -9.22260 | 4793 ft | 225 kts | 342° |
| 2026-05-06 17:49 | 38.57209 | -9.22864 | 4456 ft | 223 kts | 342° |
| 2026-05-06 17:49 | 38.58702 | -9.23357 | 4117 ft | 222 kts | 354° |
| 2026-05-06 17:50 | 38.60218 | -9.23134 | 3836 ft | 221 kts | 16° |
| 2026-05-06 17:50 | 38.61638 | -9.22398 | 3548 ft | 219 kts | 20° |
| 2026-05-06 17:50 | 38.63037 | -9.21647 | 3252 ft | 217 kts | 19° |
| 2026-05-06 17:50 | 38.64422 | -9.20891 | 3008 ft | 215 kts | 20° |
| 2026-05-06 17:51 | 38.65776 | -9.20144 | 2729 ft | 209 kts | 19° |
| 2026-05-06 17:51 | 38.67073 | -9.19457 | 2515 ft | 195 kts | 19° |
| 2026-05-06 17:51 | 38.68268 | -9.18832 | 2446 ft | 175 kts | 18° |
| 2026-05-06 17:51 | 38.69338 | -9.18266 | 2242 ft | 161 kts | 19° |
| 2026-05-06 17:52 | 38.70360 | -9.17716 | 1868 ft | 159 kts | 19° |
| 2026-05-06 17:52 | 38.71358 | -9.17174 | 1518 ft | 157 kts | 18° |
| 2026-05-06 17:52 | 38.72349 | -9.16641 | 1266 ft | 151 kts | 17° |
| 2026-05-06 17:52 | 38.73297 | -9.16149 | 1088 ft | 143 kts | 15° |
| 2026-05-06 17:53 | 38.74218 | -9.15682 | 874 ft | 139 kts | 17° |
| 2026-05-06 17:53 | 38.75076 | -9.15213 | 654 ft | 130 kts | 16° |
| 2026-05-06 17:53 | 38.75926 | -9.14769 | 507 ft | 134 kts | 17° |
| 2026-05-06 17:53 | 38.76776 | -9.14310 | 370 ft | 131 kts | 15° |
| 2026-05-06 17:54 | 38.77546 | -9.13913 | 367 ft | 102 kts | 23° |
| 2026-05-06 17:54 | 38.78043 | -9.13642 | 368 ft | 53 kts | 24° |
| 2026-05-06 17:54 | 38.78273 | -9.13477 | 368 ft | 33 kts | 41° |
| 2026-05-06 17:54 | 38.78376 | -9.13295 | 361 ft | 17 kts | 102° |
| 2026-05-06 17:55 | 38.78312 | -9.13269 | 359 ft | 11 kts | 196° |
| 2026-05-06 17:55 | 38.78226 | -9.13314 | 358 ft | 15 kts | 202° |
| 2026-05-06 17:55 | 38.78123 | -9.13369 | 364 ft | 17 kts | 203° |
| 2026-05-06 17:55 | 38.78010 | -9.13413 | 356 ft | 18 kts | 177° |
| 2026-05-06 17:56 | 38.77867 | -9.13378 | 349 ft | 23 kts | 168° |
| 2026-05-06 17:56 | 38.77697 | -9.13330 | 339 ft | 27 kts | 167° |
| 2026-05-06 17:56 | 38.77511 | -9.13301 | 334 ft | 27 kts | 167° |
| 2026-05-06 17:56 | 38.77325 | -9.13256 | 338 ft | 27 kts | 171° |
| 2026-05-06 17:57 | 38.77151 | -9.13212 | 338 ft | 22 kts | 169° |
| 2026-05-06 17:57 | 38.77034 | -9.13182 | 337 ft | 15 kts | 168° |
| 2026-05-06 17:57 | 38.76945 | -9.13158 | 339 ft | 6 kts | 168° |
| 2026-05-06 17:57 | 38.76925 | -9.13133 | 336 ft | 6 kts | 95° |
| 2026-05-06 17:58 | 38.76935 | -9.13075 | 334 ft | 3 kts | 78° |
| 2026-05-06 17:58 | 38.76937 | -9.13068 | 335 ft | 1 kts | 78° |
| 2026-05-06 17:58 | 38.76937 | -9.13063 | 336 ft | 0 kts | 78° |